Time;durP1;ratioP1;P1;durP2;ratioP2;P2;SDS_P1;SDS_P2;PMS_P1;PMS_P2;Temp;Humidity;BMP_temperature;BMP_pressure;BME280_temperature;BME280_humidity;BME280_pressure;Samples;Min_cycle;Max_cycle;Signal;HPM_P1;HPM_P2
2022/02/28 00:01:41;;;;;;;18.80;11.15;;;;;;;;;;5114442;28;20024;-70
2022/02/28 00:04:07;;;;;;;19.13;11.55;;;;;;;;;;5096125;28;20372;-71
2022/02/28 00:06:34;;;;;;;21.83;12.73;;;;;;;;;;5114304;28;20072;-70
2022/02/28 00:09:00;;;;;;;19.05;12.27;;;;;;;;;;5114367;28;20070;-71
2022/02/28 00:11:26;;;;;;;29.77;14.52;;;;;;;;;;5114226;28;20102;-71
2022/02/28 00:13:52;;;;;;;27.15;13.75;;;;;;;;;;5114229;28;20068;-71
2022/02/28 00:16:18;;;;;;;26.30;13.60;;;;;;;;;;5113700;28;20050;-70
2022/02/28 00:18:45;;;;;;;20.25;11.48;;;;;;;;;;5114264;28;20211;-70
2022/02/28 00:21:11;;;;;;;21.67;11.95;;;;;;;;;;5114088;28;20098;-70
2022/02/28 00:23:37;;;;;;;18.38;11.40;;;;;;;;;;5095783;28;20028;-71
2022/02/28 00:26:04;;;;;;;15.40;10.85;;;;;;;;;;5112959;28;20024;-70
2022/02/28 00:28:31;;;;;;;19.10;10.73;;;;;;;;;;5095199;28;20032;-70
2022/02/28 00:30:57;;;;;;;20.58;11.63;;;;;;;;;;5095685;28;20447;-70
2022/02/28 00:33:23;;;;;;;24.58;11.95;;;;;;;;;;5113901;28;20440;-70
2022/02/28 00:35:49;;;;;;;22.23;11.25;;;;;;;;;;5113867;28;20027;-71
2022/02/28 00:38:16;;;;;;;20.45;11.10;;;;;;;;;;5113784;28;20034;-71
2022/02/28 00:40:43;;;;;;;20.48;11.13;;;;;;;;;;5113822;28;20028;-70
2022/02/28 00:43:09;;;;;;;21.40;12.40;;;;;;;;;;5095202;28;20024;-71
2022/02/28 00:45:44;;;;;;;35.00;15.05;;;;;;;;;;5095155;28;20030;-70
2022/02/28 00:48:11;;;;;;;43.72;17.65;;;;;;;;;;5113755;28;20098;-70
2022/02/28 00:50:37;;;;;;;32.13;15.15;;;;;;;;;;5113675;28;20031;-71
2022/02/28 00:53:03;;;;;;;29.75;14.45;;;;;;;;;;5113915;28;20030;-70
2022/02/28 00:55:30;;;;;;;22.92;12.90;;;;;;;;;;5113613;28;20083;-68
2022/02/28 00:57:56;;;;;;;34.92;15.88;;;;;;;;;;5113584;28;20027;-69
2022/02/28 01:00:23;;;;;;;25.77;13.05;;;;;;;;;;5113307;28;20592;-68
2022/02/28 01:02:49;;;;;;;16.88;11.55;;;;;;;;;;5095614;28;20421;-68
2022/02/28 01:05:16;;;;;;;27.38;11.82;;;;;;;;;;5113501;28;20032;-69
2022/02/28 01:07:43;;;;;;;21.52;13.05;;;;;;;;;;5113511;28;20039;-70
2022/02/28 01:10:11;;;;;;;25.83;13.40;;;;;;;;;;5095172;28;20028;-71
2022/02/28 01:12:37;;;;;;;24.77;13.98;;;;;;;;;;5113193;28;20032;-70
2022/02/28 01:15:05;;;;;;;27.00;14.57;;;;;;;;;;5113254;28;20052;-70
2022/02/28 01:17:33;;;;;;;28.92;15.38;;;;;;;;;;5113155;28;20068;-71
2022/02/28 01:19:59;;;;;;;27.63;15.50;;;;;;;;;;5113432;28;20027;-70
2022/02/28 01:22:26;;;;;;;26.67;15.32;;;;;;;;;;5095010;28;20026;-70
2022/02/28 01:24:52;;;;;;;29.98;17.27;;;;;;;;;;5113342;28;20099;-70
2022/02/28 01:27:19;;;;;;;23.90;16.50;;;;;;;;;;5095000;28;20115;-70
2022/02/28 01:29:45;;;;;;;30.98;16.92;;;;;;;;;;5095165;28;20053;-70
2022/02/28 01:32:12;;;;;;;25.13;16.65;;;;;;;;;;5113513;28;20095;-70
2022/02/28 01:34:38;;;;;;;30.83;16.13;;;;;;;;;;5113228;28;20027;-70
2022/02/28 01:37:05;;;;;;;28.20;17.50;;;;;;;;;;5113463;28;20110;-70
2022/02/28 01:39:31;;;;;;;29.73;16.15;;;;;;;;;;5113108;28;20157;-69
2022/02/28 01:41:57;;;;;;;24.08;13.73;;;;;;;;;;5094899;28;20032;-70
2022/02/28 01:44:23;;;;;;;20.92;13.50;;;;;;;;;;5094835;28;20032;-71
2022/02/28 01:46:49;;;;;;;19.27;12.23;;;;;;;;;;5113143;28;20479;-71
2022/02/28 01:49:15;;;;;;;22.17;12.80;;;;;;;;;;5113143;28;20038;-70
2022/02/28 01:51:42;;;;;;;21.50;12.65;;;;;;;;;;5113317;28;20024;-71
2022/02/28 01:54:08;;;;;;;20.77;12.35;;;;;;;;;;5113067;28;20088;-72
2022/02/28 01:56:36;;;;;;;22.75;12.93;;;;;;;;;;5113013;28;20020;-71
2022/02/28 01:59:02;;;;;;;20.83;13.48;;;;;;;;;;5116592;28;20064;-73
2022/02/28 02:01:28;;;;;;;24.02;12.50;;;;;;;;;;5116809;28;20024;-71
2022/02/28 02:03:55;;;;;;;19.48;11.63;;;;;;;;;;5098503;28;20024;-71
2022/02/28 02:06:21;;;;;;;20.80;12.52;;;;;;;;;;5098446;28;20118;-72
2022/02/28 02:08:48;;;;;;;18.15;11.52;;;;;;;;;;5098308;28;20118;-72
2022/02/28 02:11:14;;;;;;;18.55;11.45;;;;;;;;;;5116646;28;20030;-71
2022/02/28 02:13:40;;;;;;;19.90;10.50;;;;;;;;;;5116534;28;20024;-70
2022/02/28 02:16:07;;;;;;;18.98;11.35;;;;;;;;;;5116400;28;20476;-70
2022/02/28 02:18:33;;;;;;;22.42;11.98;;;;;;;;;;5116426;28;20050;-71
2022/02/28 02:20:59;;;;;;;16.45;10.30;;;;;;;;;;5098152;28;20026;-70
2022/02/28 02:23:27;;;;;;;13.77;10.20;;;;;;;;;;5098084;28;20020;-71
2022/02/28 02:25:55;;;;;;;15.73;10.15;;;;;;;;;;5098103;28;20057;-71
2022/02/28 02:28:21;;;;;;;18.30;10.45;;;;;;;;;;5116248;28;20384;-71
2022/02/28 02:30:53;;;;;;;15.75;10.65;;;;;;;;;;5097907;28;20026;-71
2022/02/28 02:33:20;;;;;;;15.90;10.50;;;;;;;;;;5116516;28;20031;-69
2022/02/28 02:35:48;;;;;;;22.20;10.13;;;;;;;;;;5116159;28;20092;-71
2022/02/28 02:38:15;;;;;;;15.30;9.85;;;;;;;;;;5116066;28;20032;-70
2022/02/28 02:40:41;;;;;;;17.25;10.45;;;;;;;;;;5116170;28;20027;-70
2022/02/28 02:43:07;;;;;;;13.10;9.07;;;;;;;;;;5115758;28;20447;-68
2022/02/28 02:45:33;;;;;;;15.82;9.93;;;;;;;;;;5097456;28;20027;-71
2022/02/28 02:48:09;;;;;;;19.77;12.00;;;;;;;;;;5097669;28;20130;-70
2022/02/28 02:50:35;;;;;;;16.60;11.77;;;;;;;;;;5115942;28;20036;-70
2022/02/28 02:53:01;;;;;;;17.85;12.02;;;;;;;;;;5097586;28;20027;-69
2022/02/28 02:55:27;;;;;;;18.23;11.82;;;;;;;;;;5115804;28;20034;-69
2022/02/28 02:57:53;;;;;;;20.17;11.98;;;;;;;;;;5097620;28;20377;-68
2022/02/28 03:00:20;;;;;;;21.23;12.10;;;;;;;;;;5116028;28;20144;-68
2022/02/28 03:02:46;;;;;;;23.40;12.32;;;;;;;;;;5115641;28;20043;-69
2022/02/28 03:05:12;;;;;;;17.75;12.45;;;;;;;;;;5097291;28;20030;-68
2022/02/28 03:07:38;;;;;;;20.40;13.02;;;;;;;;;;5115065;28;20038;-69
2022/02/28 03:10:05;;;;;;;19.80;13.55;;;;;;;;;;5115831;28;20062;-69
2022/02/28 03:12:31;;;;;;;25.15;14.55;;;;;;;;;;5115733;28;20024;-69
2022/02/28 03:14:57;;;;;;;22.80;13.93;;;;;;;;;;5096822;28;20039;-70
2022/02/28 03:17:23;;;;;;;20.17;13.45;;;;;;;;;;5096999;28;20058;-70
2022/02/28 03:19:49;;;;;;;20.50;13.68;;;;;;;;;;5115658;28;20030;-70
2022/02/28 03:22:16;;;;;;;22.15;14.45;;;;;;;;;;5114951;28;20498;-69
2022/02/28 03:24:42;;;;;;;22.95;14.50;;;;;;;;;;5096933;28;20361;-70
2022/02/28 03:27:08;;;;;;;21.15;14.13;;;;;;;;;;5115186;28;20482;-70
2022/02/28 03:29:34;;;;;;;24.95;14.68;;;;;;;;;;5115114;28;20024;-69
2022/02/28 03:32:00;;;;;;;25.58;15.32;;;;;;;;;;5115077;28;20085;-70
2022/02/28 03:34:26;;;;;;;24.35;15.25;;;;;;;;;;5114730;28;20023;-69
2022/02/28 03:36:53;;;;;;;28.15;16.75;;;;;;;;;;5114962;28;20024;-69
2022/02/28 03:39:19;;;;;;;28.05;16.52;;;;;;;;;;5114945;28;20394;-70
2022/02/28 03:41:45;;;;;;;27.35;16.83;;;;;;;;;;5096564;28;20034;-70
2022/02/28 03:44:11;;;;;;;22.30;16.17;;;;;;;;;;5096235;28;20027;-70
2022/02/28 03:46:37;;;;;;;22.45;15.30;;;;;;;;;;5114462;28;20512;-69
2022/02/28 03:49:04;;;;;;;25.98;17.05;;;;;;;;;;5114990;28;20032;-70
2022/02/28 03:51:30;;;;;;;27.08;15.85;;;;;;;;;;5114735;28;20027;-70
2022/02/28 03:53:56;;;;;;;28.02;18.00;;;;;;;;;;5114644;28;20028;-70
2022/02/28 03:56:22;;;;;;;31.45;18.52;;;;;;;;;;5114606;28;20032;-69
2022/02/28 03:58:48;;;;;;;25.27;15.40;;;;;;;;;;5096179;28;20028;-69
2022/02/28 04:01:15;;;;;;;20.67;14.50;;;;;;;;;;5114280;28;20030;-69
2022/02/28 04:03:41;;;;;;;23.48;15.57;;;;;;;;;;5114441;28;20030;-69
2022/02/28 04:06:08;;;;;;;22.95;14.77;;;;;;;;;;5114414;28;20175;-69
2022/02/28 04:08:34;;;;;;;23.65;14.07;;;;;;;;;;5096003;28;20032;-69
2022/02/28 04:11:00;;;;;;;20.58;14.13;;;;;;;;;;5114393;28;20098;-70
2022/02/28 04:13:26;;;;;;;23.25;13.32;;;;;;;;;;5096059;28;20028;-70
2022/02/28 04:15:53;;;;;;;20.98;12.68;;;;;;;;;;5114154;28;20092;-70
2022/02/28 04:18:19;;;;;;;24.23;13.25;;;;;;;;;;5114297;28;20030;-70
2022/02/28 04:20:47;;;;;;;18.73;12.75;;;;;;;;;;5095368;28;20051;-69
2022/02/28 04:23:13;;;;;;;23.77;12.85;;;;;;;;;;5113818;28;20361;-70
2022/02/28 04:25:39;;;;;;;19.17;12.90;;;;;;;;;;5114324;28;20127;-69
2022/02/28 04:28:06;;;;;;;21.15;13.88;;;;;;;;;;5114081;28;20051;-67
2022/02/28 04:30:32;;;;;;;20.67;11.20;;;;;;;;;;5095764;28;20027;-69
2022/02/28 04:32:58;;;;;;;19.58;11.63;;;;;;;;;;5113963;28;20034;-69
2022/02/28 04:35:24;;;;;;;18.30;11.27;;;;;;;;;;5095691;28;20025;-69
2022/02/28 04:37:50;;;;;;;19.80;11.32;;;;;;;;;;5113812;28;20092;-67
2022/02/28 04:40:16;;;;;;;15.65;10.32;;;;;;;;;;5113876;28;20028;-68
2022/02/28 04:42:43;;;;;;;14.10;9.40;;;;;;;;;;5113737;28;20036;-69
2022/02/28 04:45:09;;;;;;;18.98;11.18;;;;;;;;;;5095528;28;20122;-68
2022/02/28 04:47:35;;;;;;;17.02;9.23;;;;;;;;;;5113712;28;20028;-67
2022/02/28 04:50:02;;;;;;;17.77;9.65;;;;;;;;;;5095473;28;20023;-70
2022/02/28 04:52:28;;;;;;;15.98;8.90;;;;;;;;;;5113733;28;20020;-68
2022/02/28 04:54:54;;;;;;;14.70;8.95;;;;;;;;;;5113640;28;20138;-71
2022/02/28 04:57:20;;;;;;;15.32;8.82;;;;;;;;;;5095288;28;20100;-72
2022/02/28 04:59:46;;;;;;;14.73;8.43;;;;;;;;;;5095393;28;20035;-71
2022/02/28 05:02:13;;;;;;;15.95;9.15;;;;;;;;;;5113561;28;20015;-71
2022/02/28 05:04:39;;;;;;;14.90;7.95;;;;;;;;;;5095242;28;20371;-68
2022/02/28 05:07:05;;;;;;;17.27;9.85;;;;;;;;;;5095276;28;20061;-69
2022/02/28 05:09:31;;;;;;;23.30;12.23;;;;;;;;;;5113488;28;20024;-70
2022/02/28 05:11:57;;;;;;;20.83;11.23;;;;;;;;;;5095242;28;20114;-70
2022/02/28 05:14:23;;;;;;;18.48;9.57;;;;;;;;;;5113442;28;20035;-66
2022/02/28 05:16:50;;;;;;;14.77;8.43;;;;;;;;;;5113550;28;20650;-68
2022/02/28 05:19:17;;;;;;;18.25;10.18;;;;;;;;;;5095050;28;20046;-66
2022/02/28 05:21:43;;;;;;;18.33;10.57;;;;;;;;;;5113385;28;20088;-69
2022/02/28 05:24:09;;;;;;;19.20;11.05;;;;;;;;;;5113351;28;20111;-71
2022/02/28 05:26:36;;;;;;;31.15;14.02;;;;;;;;;;5113304;28;20161;-70
2022/02/28 05:29:02;;;;;;;43.42;17.42;;;;;;;;;;5094003;28;20383;-69
2022/02/28 05:31:29;;;;;;;32.05;14.98;;;;;;;;;;5102475;28;20023;-67
2022/02/28 05:33:55;;;;;;;25.75;13.32;;;;;;;;;;5106331;28;20016;-68
2022/02/28 05:36:21;;;;;;;26.08;12.57;;;;;;;;;;5111146;28;20050;-68
2022/02/28 05:38:47;;;;;;;24.70;12.93;;;;;;;;;;5117232;28;20039;-68
2022/02/28 05:41:13;;;;;;;24.90;13.23;;;;;;;;;;5117283;28;20024;-67
2022/02/28 05:43:40;;;;;;;20.17;12.25;;;;;;;;;;5117183;28;20115;-68
2022/02/28 05:46:06;;;;;;;19.80;12.00;;;;;;;;;;5098642;28;20028;-69
2022/02/28 05:48:32;;;;;;;22.02;12.57;;;;;;;;;;5117007;28;20032;-69
2022/02/28 05:50:58;;;;;;;22.08;14.27;;;;;;;;;;5117078;28;20019;-69
2022/02/28 05:53:24;;;;;;;23.58;13.48;;;;;;;;;;5116552;28;20031;-70
2022/02/28 05:55:50;;;;;;;28.20;14.15;;;;;;;;;;5116807;28;20028;-69
2022/02/28 05:58:17;;;;;;;26.38;15.18;;;;;;;;;;5116740;28;20034;-69
2022/02/28 06:00:44;;;;;;;26.20;14.65;;;;;;;;;;5116829;28;20027;-69
2022/02/28 06:03:10;;;;;;;27.38;15.07;;;;;;;;;;5116687;28;20035;-69
2022/02/28 06:05:36;;;;;;;26.83;13.85;;;;;;;;;;5116758;28;20099;-68
2022/02/28 06:08:02;;;;;;;28.52;15.57;;;;;;;;;;5116663;28;20460;-68
2022/02/28 06:10:28;;;;;;;23.42;13.88;;;;;;;;;;5098297;28;20391;-67
2022/02/28 06:12:55;;;;;;;28.25;14.07;;;;;;;;;;5116595;28;20115;-67
2022/02/28 06:15:21;;;;;;;22.88;13.18;;;;;;;;;;5098058;28;20448;-67
2022/02/28 06:17:47;;;;;;;30.17;12.70;;;;;;;;;;5113830;28;20040;-65
2022/02/28 06:20:13;;;;;;;24.00;13.73;;;;;;;;;;5089061;28;20118;-66
2022/02/28 06:22:39;;;;;;;30.27;13.57;;;;;;;;;;5095919;28;20156;-65
2022/02/28 06:25:06;;;;;;;26.92;13.38;;;;;;;;;;5095952;28;20035;-67
2022/02/28 06:27:32;;;;;;;23.77;13.77;;;;;;;;;;5095536;28;20472;-67
2022/02/28 06:29:58;;;;;;;24.42;13.52;;;;;;;;;;5095631;28;20106;-66
2022/02/28 06:32:24;;;;;;;26.13;14.18;;;;;;;;;;5095775;28;20357;-67
2022/02/28 06:34:51;;;;;;;25.88;13.07;;;;;;;;;;5095524;28;20032;-68
2022/02/28 06:37:17;;;;;;;28.50;14.07;;;;;;;;;;5095511;28;20032;-67
2022/02/28 06:39:45;;;;;;;27.20;13.93;;;;;;;;;;5095103;28;20094;-65
2022/02/28 06:42:11;;;;;;;33.80;14.77;;;;;;;;;;5093803;28;20024;-69
2022/02/28 06:44:38;;;;;;;29.90;13.15;;;;;;;;;;5095404;28;20038;-68
2022/02/28 06:47:04;;;;;;;30.20;14.35;;;;;;;;;;5093902;28;20564;-66
2022/02/28 06:49:30;;;;;;;23.73;12.10;;;;;;;;;;5095403;28;20057;-67
2022/02/28 06:51:56;;;;;;;21.50;11.60;;;;;;;;;;5095136;28;20099;-67
2022/02/28 06:54:22;;;;;;;23.35;13.20;;;;;;;;;;5094978;28;20048;-66
2022/02/28 06:56:49;;;;;;;27.30;14.95;;;;;;;;;;5107606;28;20032;-68
2022/02/28 06:59:15;;;;;;;47.03;19.77;;;;;;;;;;5114213;28;20484;-66
2022/02/28 07:01:42;;;;;;;61.17;30.52;;;;;;;;;;5113878;28;20479;-67
2022/02/28 07:04:08;;;;;;;108.45;55.22;;;;;;;;;;5095615;28;20052;-67
2022/02/28 07:06:35;;;;;;;53.35;28.30;;;;;;;;;;5115371;28;20066;-68
2022/02/28 07:09:01;;;;;;;66.70;34.75;;;;;;;;;;5114056;28;20027;-66
2022/02/28 07:11:27;;;;;;;31.40;17.30;;;;;;;;;;5115084;28;20028;-67
2022/02/28 07:13:54;;;;;;;55.97;28.30;;;;;;;;;;5115206;28;20024;-67
2022/02/28 07:16:20;;;;;;;76.40;43.63;;;;;;;;;;5115139;28;20127;-68
2022/02/28 07:18:46;;;;;;;30.40;17.48;;;;;;;;;;5114803;28;20036;-67
2022/02/28 07:21:13;;;;;;;22.77;13.80;;;;;;;;;;5115050;28;20019;-67
2022/02/28 07:23:39;;;;;;;30.10;15.68;;;;;;;;;;5096343;28;20024;-69
2022/02/28 07:26:05;;;;;;;16.08;10.98;;;;;;;;;;5096596;28;20521;-67
2022/02/28 07:28:31;;;;;;;21.40;12.98;;;;;;;;;;5114893;28;20031;-66
2022/02/28 07:30:57;;;;;;;37.28;19.85;;;;;;;;;;5114786;28;20027;-66
2022/02/28 07:33:24;;;;;;;21.98;14.40;;;;;;;;;;5114715;28;20024;-66
2022/02/28 07:35:50;;;;;;;23.20;13.23;;;;;;;;;;5114747;28;20197;-67
2022/02/28 07:38:16;;;;;;;24.15;14.73;;;;;;;;;;5114607;28;20036;-67
2022/02/28 07:40:42;;;;;;;25.10;14.70;;;;;;;;;;5114592;28;20088;-66
2022/02/28 07:43:08;;;;;;;27.27;16.77;;;;;;;;;;5114494;28;20092;-67
2022/02/28 07:45:35;;;;;;;30.27;19.48;;;;;;;;;;5114603;28;20066;-67
2022/02/28 07:48:01;;;;;;;29.58;15.80;;;;;;;;;;5114525;28;20464;-69
2022/02/28 07:50:27;;;;;;;25.35;13.65;;;;;;;;;;5114569;28;20023;-68
2022/02/28 07:52:53;;;;;;;22.33;12.73;;;;;;;;;;5114386;28;20051;-70
2022/02/28 07:55:20;;;;;;;21.15;12.15;;;;;;;;;;5106483;28;20024;-72
2022/02/28 07:57:46;;;;;;;20.17;12.10;;;;;;;;;;5093813;28;20460;-70
2022/02/28 08:00:12;;;;;;;17.02;10.80;;;;;;;;;;5075690;28;20376;-69
2022/02/28 08:02:38;;;;;;;23.17;11.43;;;;;;;;;;5093734;28;20055;-72
2022/02/28 08:05:05;;;;;;;24.00;12.98;;;;;;;;;;5075317;28;20032;-73
2022/02/28 08:07:31;;;;;;;27.60;12.55;;;;;;;;;;5075057;28;20020;-72
2022/02/28 08:09:58;;;;;;;23.25;11.63;;;;;;;;;;5093615;28;20016;-70
2022/02/28 08:12:28;;;;;;;16.17;10.13;;;;;;;;;;5075455;28;20028;-72
2022/02/28 08:14:55;;;;;;;18.70;10.18;;;;;;;;;;5074875;28;20092;-71
2022/02/28 08:17:21;;;;;;;18.55;9.70;;;;;;;;;;5093251;28;20025;-71
2022/02/28 08:19:47;;;;;;;17.42;10.43;;;;;;;;;;5093161;28;20111;-72
2022/02/28 08:22:13;;;;;;;20.00;10.13;;;;;;;;;;5093496;28;20107;-70
2022/02/28 08:24:39;;;;;;;16.85;9.50;;;;;;;;;;5093153;28;20033;-70
2022/02/28 08:27:06;;;;;;;17.95;9.90;;;;;;;;;;5074970;28;20118;-74
2022/02/28 08:29:32;;;;;;;18.17;10.25;;;;;;;;;;5093475;28;20028;-71
2022/02/28 08:31:58;;;;;;;16.23;9.98;;;;;;;;;;5093509;28;20024;-72
2022/02/28 08:34:24;;;;;;;19.13;10.35;;;;;;;;;;5075146;28;20477;-68
2022/02/28 08:36:50;;;;;;;21.20;11.90;;;;;;;;;;5091006;28;20500;-74
2022/02/28 08:39:17;;;;;;;27.30;11.60;;;;;;;;;;5092847;28;20070;-69
2022/02/28 08:41:43;;;;;;;21.45;13.45;;;;;;;;;;5093532;28;20036;-71
2022/02/28 08:44:09;;;;;;;29.27;14.07;;;;;;;;;;5093429;28;20397;-69
2022/02/28 08:46:36;;;;;;;26.77;12.85;;;;;;;;;;5093141;28;20128;-68
2022/02/28 08:49:03;;;;;;;40.88;23.35;;;;;;;;;;5074966;28;20027;-69
2022/02/28 08:51:29;;;;;;;28.45;16.38;;;;;;;;;;5093195;28;20020;-68
2022/02/28 08:53:55;;;;;;;21.92;14.57;;;;;;;;;;5093175;28;20024;-69
2022/02/28 08:56:22;;;;;;;38.35;22.80;;;;;;;;;;5093065;28;20096;-70
2022/02/28 08:58:48;;;;;;;32.15;16.20;;;;;;;;;;5092898;28;20032;-70
2022/02/28 09:01:14;;;;;;;36.65;21.80;;;;;;;;;;5074829;28;20028;-73
2022/02/28 09:03:40;;;;;;;20.67;11.18;;;;;;;;;;5093024;28;20054;-70
2022/02/28 09:06:06;;;;;;;17.83;9.45;;;;;;;;;;5074550;28;20115;-71
2022/02/28 09:08:33;;;;;;;47.50;25.70;;;;;;;;;;5092877;28;20036;-70
2022/02/28 09:10:59;;;;;;;97.88;53.42;;;;;;;;;;5092772;28;20032;-71
2022/02/28 09:13:26;;;;;;;40.90;27.85;;;;;;;;;;5092438;28;20034;-70
2022/02/28 09:15:52;;;;;;;34.17;22.52;;;;;;;;;;5070928;28;20050;-72
2022/02/28 09:18:19;;;;;;;22.20;13.50;;;;;;;;;;5071291;28;20037;-70
2022/02/28 09:20:45;;;;;;;22.83;13.52;;;;;;;;;;5072549;28;20473;-70
2022/02/28 09:23:11;;;;;;;22.27;10.77;;;;;;;;;;5071384;28;20029;-71
2022/02/28 09:25:37;;;;;;;17.58;10.82;;;;;;;;;;5071269;28;20025;-71
2022/02/28 09:28:04;;;;;;;21.95;12.60;;;;;;;;;;5071294;28;20035;-71
2022/02/28 09:30:30;;;;;;;24.00;13.88;;;;;;;;;;5072042;28;20393;-72
2022/02/28 09:32:57;;;;;;;22.38;12.10;;;;;;;;;;5072624;28;20027;-71
2022/02/28 09:35:24;;;;;;;20.63;12.23;;;;;;;;;;5069552;28;20025;-71
2022/02/28 09:37:51;;;;;;;20.02;11.27;;;;;;;;;;5070802;28;20027;-69
2022/02/28 09:40:17;;;;;;;29.35;12.77;;;;;;;;;;5072544;28;20048;-69
2022/02/28 09:42:44;;;;;;;31.73;14.50;;;;;;;;;;5072312;28;20111;-71
2022/02/28 09:45:11;;;;;;;25.98;12.45;;;;;;;;;;5072497;28;20494;-70
2022/02/28 09:47:37;;;;;;;28.63;13.75;;;;;;;;;;5068377;28;20059;-70
2022/02/28 09:50:03;;;;;;;18.77;10.75;;;;;;;;;;5052189;28;20458;-70
2022/02/28 09:52:30;;;;;;;26.60;15.07;;;;;;;;;;5058927;28;20104;-68
2022/02/28 09:54:56;;;;;;;45.03;23.55;;;;;;;;;;5071077;28;20488;-70
2022/02/28 09:57:23;;;;;;;18.00;10.25;;;;;;;;;;5072225;28;20052;-69
2022/02/28 09:59:50;;;;;;;31.85;16.55;;;;;;;;;;5055501;28;20033;-71
2022/02/28 10:02:16;;;;;;;21.42;10.98;;;;;;;;;;5052280;28;20029;-71
2022/02/28 10:04:43;;;;;;;21.88;11.93;;;;;;;;;;5050663;28;20070;-71
2022/02/28 10:07:20;;;;;;;25.45;12.73;;;;;;;;;;5052090;28;20025;-71
2022/02/28 10:09:46;;;;;;;18.73;10.32;;;;;;;;;;5050757;28;20540;-72
2022/02/28 10:12:13;;;;;;;20.92;10.80;;;;;;;;;;5050802;28;20114;-70
2022/02/28 10:14:39;;;;;;;20.80;13.77;;;;;;;;;;5055112;28;20369;-71
2022/02/28 10:17:05;;;;;;;21.33;12.80;;;;;;;;;;5074180;28;20421;-70
2022/02/28 10:19:35;;;;;;;23.88;12.10;;;;;;;;;;5095099;28;20471;-70
2022/02/28 10:22:07;;;;;;;65.32;36.00;;;;;;;;;;5077603;28;20388;-71
2022/02/28 10:24:34;;;;;;;27.63;14.70;;;;;;;;;;5077710;28;20026;-70
2022/02/28 10:27:00;;;;;;;18.77;10.98;;;;;;;;;;5095627;28;20024;-71
2022/02/28 10:29:31;;;;;;;22.50;11.48;;;;;;;;;;5096020;28;20039;-70
2022/02/28 10:32:02;;;;;;;23.77;14.00;;;;;;;;;;5095627;28;20031;-70
2022/02/28 10:34:30;;;;;;;13.23;10.52;;;;;;;;;;5095940;28;20344;-70
2022/02/28 10:36:59;;;;;;;18.17;11.02;;;;;;;;;;5095491;28;20031;-70
2022/02/28 10:39:30;;;;;;;20.50;11.68;;;;;;;;;;5095407;28;20102;-67
2022/02/28 10:42:02;;;;;;;21.17;10.82;;;;;;;;;;5095518;28;20031;-67
2022/02/28 10:44:28;;;;;;;22.98;12.90;;;;;;;;;;5095786;28;20024;-68
2022/02/28 10:46:54;;;;;;;23.98;11.65;;;;;;;;;;5095400;28;20107;-68
2022/02/28 10:49:28;;;;;;;17.52;9.75;;;;;;;;;;5095369;28;20034;-67
2022/02/28 10:51:56;;;;;;;38.70;20.38;;;;;;;;;;5095357;28;20020;-69
2022/02/28 10:54:32;;;;;;;25.75;14.20;;;10.90;95.00;;;;;;5095572;28;20069;-68
2022/02/28 10:57:18;;;;;;;24.13;12.45;;;11.20;84.80;;;;;;5076880;28;20028;-67
2022/02/28 10:59:46;;;;;;;15.85;10.90;;;11.30;83.20;;;;;;5095185;28;20040;-70
2022/02/28 11:02:26;;;;;;;19.35;11.50;;;11.70;84.50;;;;;;5095016;28;20016;-67
2022/02/28 11:05:17;;;;;;;15.77;9.98;;;12.10;81.60;;;;;;5076954;28;20493;-68
2022/02/28 11:07:55;;;;;;;22.33;11.95;;;13.00;78.90;;;;;;5095154;28;20536;-67
2022/02/28 11:10:22;;;;;;;14.85;10.23;;;;;;;;;;5095109;28;20024;-65
2022/02/28 11:12:49;;;;;;;18.73;12.75;;;;;;;;;;5094948;28;20024;-65
2022/02/28 11:15:18;;;;;;;14.90;11.13;;;13.10;76.80;;;;;;5094607;28;20052;-66
2022/02/28 11:17:50;;;;;;;15.20;9.23;;;12.80;75.60;;;;;;5094836;28;20037;-67
2022/02/28 11:20:19;;;;;;;22.13;12.25;;;12.10;73.90;;;;;;5094908;28;20027;-70
2022/02/28 11:22:47;;;;;;;14.95;10.25;;;13.10;75.50;;;;;;5076522;28;20817;-64
2022/02/28 11:25:16;;;;;;;14.35;8.95;;;13.10;72.60;;;;;;5094664;28;20032;-70
2022/02/28 11:27:43;;;;;;;23.95;13.98;;;13.20;71.90;;;;;;5076418;28;20024;-64
2022/02/28 11:30:15;;;;;;;46.13;24.02;;;12.90;72.00;;;;;;5076290;28;20465;-66
2022/02/28 11:32:41;;;;;;;18.38;8.13;;;11.60;75.10;;;;;;5094507;28;20035;-65
2022/02/28 11:35:38;;;;;;;15.88;8.27;;;12.10;73.50;;;;;;5075886;28;20131;-64
2022/02/28 11:38:17;;;;;;;20.05;11.63;;;;;;;;;;5076176;28;20141;-63
2022/02/28 11:40:44;;;;;;;16.92;10.45;;;;;;;;;;5092001;28;20025;-64
2022/02/28 11:43:12;;;;;;;25.13;12.00;;;;;;;;;;5075550;28;20480;-64
2022/02/28 11:45:49;;;;;;;18.88;8.45;;;;;;;;;;5094090;28;20457;-66
2022/02/28 11:48:41;;;;;;;13.40;7.80;;;10.10;80.00;;;;;;5093987;28;20063;-64
2022/02/28 11:51:07;;;;;;;;;;;;;;;;;;5094292;28;20089;-64
2022/02/28 11:53:52;;;;;;;19.38;8.55;;;;;;;;;;5094387;28;19911;-65
2022/02/28 11:56:18;;;;;;;11.95;6.43;;;;;;;;;;5094055;28;20046;-68
2022/02/28 11:58:51;;;;;;;19.17;10.32;;;;;;;;;;5093724;28;20067;-63
2022/02/28 12:01:18;;;;;;;22.05;12.65;;;;;;;;;;5093978;28;20020;-66
2022/02/28 12:04:03;;;;;;;13.80;9.43;;;;;;;;;;5075358;28;20020;-64
2022/02/28 12:06:47;;;;;;;17.20;9.45;;;;;;;;;;5093521;28;20107;-66
2022/02/28 12:09:40;;;;;;;18.08;8.93;;;;;;;;;;5093883;28;20062;-66
2022/02/28 12:12:23;;;;;;;12.70;7.68;;;10.60;82.70;;;;;;5093798;28;20016;-67
2022/02/28 12:14:55;;;;;;;15.98;8.85;;;11.30;77.30;;;;;;5093472;28;20078;-67
2022/02/28 12:17:42;;;;;;;;;;;11.90;75.20;;;;;;5094147;28;20028;-66
2022/02/28 12:20:20;;;;;;;13.68;7.10;;;13.50;70.80;;;;;;5077001;28;19918;-68
2022/02/28 12:22:54;;;;;;;17.60;7.75;;;13.50;66.70;;;;;;5090638;28;20035;-67
2022/02/28 12:25:46;;;;;;;13.27;8.57;;;13.90;66.20;;;;;;5078786;28;20372;-67
2022/02/28 12:28:29;;;;;;;15.38;8.50;;;12.30;69.50;;;;;;5113557;28;20039;-64
2022/02/28 12:31:02;;;;;;;15.15;8.68;;;11.10;73.30;;;;;;5095210;28;20045;-64
2022/02/28 12:33:34;;;;;;;12.00;7.30;;;13.60;70.60;;;;;;5113380;28;20027;-66
2022/02/28 12:36:17;;;;;;;13.68;8.73;;;;;;;;;;5095087;28;20118;-65
2022/02/28 12:38:45;;;;;;;10.68;6.60;;;15.50;64.00;;;;;;5113378;28;20035;-67
2022/02/28 12:41:20;;;;;;;17.70;8.90;;;14.90;60.20;;;;;;5113008;28;20108;-68
2022/02/28 12:43:47;;;;;;;19.77;9.25;;;14.40;62.90;;;;;;5113477;28;20081;-67
2022/02/28 12:46:16;;;;;;;11.25;6.40;;;15.00;63.10;;;;;;5113094;28;20030;-68
2022/02/28 12:48:44;;;;;;;15.98;7.90;;;13.90;62.50;;;;;;5113660;28;20027;-66
2022/02/28 12:51:12;;;;;;;9.70;6.72;;;13.50;67.00;;;;;;5113400;28;20024;-65
2022/02/28 12:53:40;;;;;;;14.18;8.05;;;14.20;64.20;;;;;;5095106;28;20026;-64
2022/02/28 12:56:16;;;;;;;13.60;7.55;;;12.40;67.40;;;;;;5094957;28;20031;-64
2022/02/28 12:58:45;;;;;;;15.35;8.77;;;11.90;68.50;;;;;;5113040;28;20432;-65
2022/02/28 13:01:16;;;;;;;13.85;7.75;;;11.40;71.30;;;;;;5094983;28;20031;-64
2022/02/28 13:03:44;;;;;;;15.18;8.00;;;11.30;70.60;;;;;;5113274;28;20030;-65
2022/02/28 13:06:12;;;;;;;32.13;12.57;;;11.60;73.00;;;;;;5112269;28;20068;-66
2022/02/28 13:08:44;;;;;;;24.92;13.05;;;12.60;70.00;;;;;;5113101;28;20058;-66
2022/02/28 13:11:19;;;;;;;16.95;8.93;;;11.20;70.10;;;;;;5113185;28;20526;-65
2022/02/28 13:14:00;;;;;;;15.88;7.78;;;10.90;74.20;;;;;;5113132;28;20023;-67
2022/02/28 13:16:29;;;;;;;14.63;7.97;;;10.60;73.50;;;;;;5112981;28;20443;-67
2022/02/28 13:19:00;;;;;;;13.93;8.35;;;;;;;;;;5112875;28;20046;-66
2022/02/28 13:21:30;;;;;;;14.65;7.88;;;;;;;;;;5113052;28;20368;-64
2022/02/28 13:24:07;;;;;;;12.80;7.65;;;;;;;;;;5113256;28;20031;-66
2022/02/28 13:26:33;;;;;;;15.32;8.57;;;;;;;;;;5112727;28;20495;-67
2022/02/28 13:29:00;;;;;;;19.92;9.00;;;;;;;;;;5094600;28;20130;-66
2022/02/28 13:31:28;;;;;;;12.93;7.63;;;;;;;;;;5112956;28;20019;-64
2022/02/28 13:33:54;;;;;;;19.88;10.50;;;;;;;;;;5094626;28;20043;-65
2022/02/28 13:36:21;;;;;;;16.40;8.75;;;;;;;;;;5094529;28;20027;-66
2022/02/28 13:38:47;;;;;;;21.73;9.82;;;;;;;;;;5112747;28;20030;-64
2022/02/28 13:41:13;;;;;;;21.25;8.68;;;;;;;;;;5113217;28;20031;-64
2022/02/28 13:43:42;;;;;;;15.50;8.23;;;;;;;;;;5112594;28;20437;-63
2022/02/28 13:46:13;;;;;;;11.50;7.50;;;;;;;;;;5112747;28;20038;-66
2022/02/28 13:48:40;;;;;;;15.57;8.40;;;;;;;;;;5112934;28;20463;-65
2022/02/28 13:51:10;;;;;;;19.17;10.52;;;;;;;;;;5112913;28;20028;-65
2022/02/28 13:53:44;;;;;;;13.23;7.45;;;;;;;;;;5114883;28;20031;-67
2022/02/28 13:56:26;;;;;;;13.38;6.80;;;;;;;;;;5116472;28;20020;-63
2022/02/28 13:58:53;;;;;;;12.75;7.25;;;;;;;;;;5098112;28;20039;-65
2022/02/28 14:01:19;;;;;;;44.70;22.02;;;;;;;;;;5116627;28;20102;-65
2022/02/28 14:04:05;;;;;;;15.73;8.60;;;;;;;;;;5098250;28;20020;-64
2022/02/28 14:06:32;;;;;;;22.02;10.77;;;;;;;;;;5116564;28;20486;-64
2022/02/28 14:08:58;;;;;;;30.08;15.70;;;;;;;;;;5098124;28;20020;-64
2022/02/28 14:11:32;;;;;;;23.90;11.95;;;;;;;;;;5116695;28;20145;-66